Seastar — 9HAV9 — position and weather

sailwx.info

Track history (hours):
 
Tides and Currents Weather Stations Pressure Air Temp Water Temp Dewpoint Dewpoint Depression Visibility Wind Speed Wind Dir Waves Ship Positions

Seastar

Last reported at 2017-Oct-17 03:58 UTC. Time now 2017-Oct-17 04:23 UTC.
Position N 44°10' E 028°39'.

Length 250 m; draft 6 m.

Type: Tanker. MMSI: 256702000.

Date/timePositionNaut miles runAvg speedWind from/ knotsBaromVisibWave heightAir tempDewpointWater temp
2017-Oct-17 03:58N 44°10' E 028°39'0 0.0
2017-Oct-17 03:16N 44°10' E 028°39'0 0.0
2017-Oct-17 02:58N 44°10' E 028°39'0 0.0
2017-Oct-17 02:28N 44°10' E 028°39'0 0.0
2017-Oct-17 01:58N 44°10' E 028°39'0 0.0
2017-Oct-17 01:28N 44°10' E 028°39'0 0.0
2017-Oct-17 00:58N 44°10' E 028°39'0 0.0
2017-Oct-17 00:28N 44°10' E 028°39'0 0.0
2017-Oct-16 23:58N 44°10' E 028°39'0 0.0
2017-Oct-16 23:25N 44°10' E 028°39'0 0.0
2017-Oct-16 22:58N 44°10' E 028°39'0 0.0
2017-Oct-16 22:28N 44°10' E 028°39'0 0.0
2017-Oct-16 21:58N 44°10' E 028°39'0 0.0
2017-Oct-16 21:28N 44°10' E 028°39'0 0.0
2017-Oct-16 20:58N 44°10' E 028°39'0 0.0
2017-Oct-16 20:25N 44°10' E 028°39'0 0.0
2017-Oct-16 19:55N 44°10' E 028°39'0 0.0
2017-Oct-16 19:28N 44°10' E 028°39'0 0.0
2017-Oct-16 18:58N 44°10' E 028°39'0 0.0
2017-Oct-16 18:28N 44°10' E 028°39'0 0.0
2017-Oct-16 17:58N 44°10' E 028°39'0 0.0
2017-Oct-16 17:19N 44°10' E 028°39'0 0.0
2017-Oct-16 16:58N 44°10' E 028°39'0 0.0
2017-Oct-16 16:28N 44°10' E 028°39'0 0.0
2017-Oct-16 15:58N 44°10' E 028°39'0 0.0
2017-Oct-16 15:28N 44°10' E 028°39'0 0.0
2017-Oct-16 14:58N 44°10' E 028°39'0 0.0
2017-Oct-16 14:28N 44°10' E 028°39'0 0.0
2017-Oct-16 13:28N 44°10' E 028°39'0 0.0
2017-Oct-16 12:58N 44°10' E 028°39'0 0.0
2017-Oct-16 12:28N 44°10' E 028°39'0 0.0
2017-Oct-16 12:01N 44°10' E 028°39'0 0.2
2017-Oct-16 11:31N 44°10' E 028°39'0 0.3
2017-Oct-16 11:01N 44°10' E 028°39'0 1.0
2017-Oct-16 10:31N 44°09' E 028°39'1 2.9
2017-Oct-16 10:01N 44°08' E 028°40'3 5.2
2017-Oct-16 09:31N 44°06' E 028°42'1 2.7
2017-Oct-16 09:01N 44°06' E 028°44'3 6.2
2017-Oct-16 08:28N 44°07' E 028°48'0 0.1
2017-Oct-16 07:58N 44°07' E 028°48'0 0.0
2017-Oct-16 07:28N 44°07' E 028°48'0 0.1
2017-Oct-16 06:58N 44°07' E 028°48'0 0.0
2017-Oct-16 06:28N 44°07' E 028°48'0 0.0
2017-Oct-16 05:58N 44°07' E 028°48'0 0.0
2017-Oct-16 05:28N 44°07' E 028°48'0 0.0
2017-Oct-16 04:58N 44°07' E 028°48'0 0.1
2017-Oct-16 04:28N 44°07' E 028°48'0 0.0
2017-Oct-16 03:58N 44°07' E 028°48'0 0.1
2017-Oct-16 03:28N 44°07' E 028°49'0 0.0
2017-Oct-16 02:58N 44°07' E 028°49'0 0.0
2017-Oct-16 02:28N 44°07' E 028°49'0 0.1
2017-Oct-16 01:58N 44°07' E 028°49'0 0.0
2017-Oct-16 01:28N 44°07' E 028°49'0 0.0
2017-Oct-16 00:58N 44°07' E 028°49'0 0.0
2017-Oct-16 00:28N 44°07' E 028°49'0 0.0
2017-Oct-15 23:58N 44°07' E 028°49'0 0.0
2017-Oct-15 23:28N 44°07' E 028°49'0 0.0
2017-Oct-15 22:58N 44°07' E 028°49'0 0.1
2017-Oct-15 22:28N 44°07' E 028°49'0 0.1
2017-Oct-15 21:58N 44°07' E 028°49'0 0.0
2017-Oct-15 21:28N 44°07' E 028°49'0 0.1
2017-Oct-15 20:58N 44°07' E 028°49'0 0.0
2017-Oct-15 20:28N 44°07' E 028°49'0 0.0
2017-Oct-15 19:58N 44°07' E 028°49'0 0.0
2017-Oct-15 19:28N 44°07' E 028°49'0 0.0
2017-Oct-15 18:58N 44°07' E 028°49'0 0.0
2017-Oct-15 18:28N 44°07' E 028°49'0 0.2
2017-Oct-15 17:59N 44°07' E 028°48'2 4.1
2017-Oct-15 17:30N 44°05' E 028°50'4 8.5
2017-Oct-15 17:00N 44°02' E 028°52'510.4
2017-Oct-15 16:30N 43°57' E 028°54'4 7.5
2017-Oct-15 16:00N 43°53' E 028°57'4 7.4
2017-Oct-15 15:30N 43°51' E 029°01'4 7.4
2017-Oct-15 15:00N 43°49' E 029°05'8 8.2
2017-Oct-15 13:59N 43°43' E 029°14'4 8.3
2017-Oct-15 13:30N 43°40' E 029°16'4 8.1
2017-Oct-15 13:00N 43°36' E 029°16'4 8.2
2017-Oct-15 12:30N 43°32' E 029°16'4 8.3
2017-Oct-15 12:00N 43°27' E 029°16'5 8.2
2017-Oct-15 11:27N 43°23' E 029°18'20 7.7
2017-Oct-15 08:50N 43°04' E 029°28'5 6.5
2017-Oct-15 08:06N 42°60' E 029°30'1 3.9
2017-Oct-15 07:43N 43°01' E 029°28'1 6.5
2017-Oct-15 07:30N 42°60' E 029°30'3 5.7
2017-Oct-15 06:55N 42°57' E 029°32'5 6.1
2017-Oct-15 06:07N 42°52' E 029°35'1 5.1
2017-Oct-15 06:00N 42°52' E 029°35'1 0.4
2017-Oct-15 02:44N 42°51' E 029°34'1 0.9
2017-Oct-15 01:57N 42°51' E 029°33'119 7.5
2017-Oct-14 10:08N 40°56' E 028°58'313.1
2017-Oct-14 09:56N 40°53' E 028°56'9 1.5
2017-Oct-14 03:47N 40°46' E 028°49'0 0.4
2017-Oct-14 03:30N 40°46' E 028°49'0 0.3
2017-Oct-14 02:19N 40°47' E 028°49'1 0.4
2017-Oct-13 22:42N 40°48' E 028°51'3 1.6
2017-Oct-13 21:09N 40°50' E 028°52'0 0.3
2017-Oct-13 20:54N 40°50' E 028°52'0 0.3
2017-Oct-13 20:30N 40°50' E 028°52'1 0.6
2017-Oct-13 19:21N 40°50' E 028°53'2 4.7
2017-Oct-13 18:52N 40°50' E 028°56'0 0.5
2017-Oct-13 18:26N 40°50' E 028°55'8 6.5
2017-Oct-13 17:11N 40°49' E 028°45'210.4
2017-Oct-13 17:00N 40°49' E 028°42'510.5
2017-Oct-13 16:30N 40°49' E 028°36'1210.6
2017-Oct-13 15:23N 40°48' E 028°20'410.7
2017-Oct-13 15:00N 40°47' E 028°14'10611.0
2017-Oct-13 05:21N 40°01' E 026°10'611.4
2017-Oct-13 04:47N 39°59' E 026°02'512.1
2017-Oct-13 04:22N 39°55' E 025°58'512.3
2017-Oct-13 03:57N 39°51' E 025°55'  
2017-Oct-10 11:55N 37°44' E 024°16'21 9.0
2017-Oct-10 09:35N 37°34' E 023°53'210.5
2017-Oct-10 09:25N 37°35' E 023°51'410.6
2017-Oct-10 09:00N 37°36' E 023°46'510.2
2017-Oct-10 08:30N 37°38' E 023°40'1 2.0
2017-Oct-10 08:00N 37°39' E 023°40'1 2.2
2017-Oct-10 07:30N 37°40' E 023°40'3 5.9
2017-Oct-10 07:01N 37°43' E 023°40'612.8
2017-Oct-10 06:31N 37°49' E 023°37'4 8.9
2017-Oct-10 06:01N 37°51' E 023°31'0 0.1
2017-Oct-10 05:29N 37°51' E 023°31'0 0.1
2017-Oct-10 04:59N 37°51' E 023°31'0 0.1
2017-Oct-10 04:26N 37°51' E 023°31'0 0.1
2017-Oct-10 03:59N 37°51' E 023°31'0 0.0
2017-Oct-10 03:29N 37°51' E 023°31'0 0.1
2017-Oct-10 02:59N 37°51' E 023°31'0 0.1
2017-Oct-10 02:29N 37°51' E 023°31'0 0.1
2017-Oct-10 01:59N 37°51' E 023°31'0 0.0
2017-Oct-10 01:29N 37°51' E 023°31'0 0.1
2017-Oct-10 00:59N 37°51' E 023°31'0 0.2
2017-Oct-10 00:29N 37°51' E 023°31'0 0.1
2017-Oct-09 23:59N 37°51' E 023°31'0 0.0
2017-Oct-09 23:29N 37°51' E 023°31'0 0.0
2017-Oct-09 22:59N 37°51' E 023°31'0 0.0
2017-Oct-09 22:29N 37°51' E 023°31'0 0.1
2017-Oct-09 21:59N 37°51' E 023°31'0 0.1
2017-Oct-09 21:29N 37°51' E 023°31'0 0.1
2017-Oct-09 20:59N 37°51' E 023°31'0 0.0
2017-Oct-09 20:29N 37°51' E 023°31'0 0.0
2017-Oct-09 19:59N 37°51' E 023°31'0 0.3
2017-Oct-09 19:29N 37°51' E 023°32'1 1.7
2017-Oct-09 19:00N 37°51' E 023°33'4 7.7
2017-Oct-09 18:30N 37°53' E 023°37'510.8
2017-Oct-09 18:00N 37°48' E 023°41'713.4
2017-Oct-09 17:30N 37°42' E 023°44'611.3
2017-Oct-09 17:00N 37°36' E 023°43'1 2.0
2017-Oct-09 16:26N 37°35' E 023°43'2 4.7
2017-Oct-09 16:00N 37°37' E 023°42'2 4.3
2017-Oct-09 15:31N 37°39' E 023°42'612.7
2017-Oct-09 15:00N 37°45' E 023°39'612.7
2017-Oct-09 14:30N 37°51' E 023°35'4 7.9
2017-Oct-09 13:58N 37°53' E 023°31'0 0.1
2017-Oct-09 13:28N 37°53' E 023°31'0 0.2
2017-Oct-09 12:58N 37°53' E 023°31'0 0.1
2017-Oct-09 12:28N 37°53' E 023°31'0 0.0
2017-Oct-09 11:58N 37°53' E 023°31'0 0.0
2017-Oct-09 11:28N 37°53' E 023°31'0 0.0
2017-Oct-09 10:58N 37°53' E 023°31'0 0.0
2017-Oct-09 10:28N 37°53' E 023°31'0 0.2
2017-Oct-09 09:58N 37°53' E 023°31'0 0.2
2017-Oct-09 09:28N 37°53' E 023°31'0 0.1
2017-Oct-09 08:58N 37°53' E 023°31'0 0.0
2017-Oct-09 08:28N 37°53' E 023°31'0 0.1
2017-Oct-09 07:58N 37°53' E 023°31'0 0.0
2017-Oct-09 07:28N 37°53' E 023°31'0 0.0
2017-Oct-09 06:58N 37°53' E 023°31'0 0.1
2017-Oct-09 06:28N 37°53' E 023°31'0 0.1
2017-Oct-09 05:58N 37°53' E 023°31'0 0.0
2017-Oct-09 05:28N 37°53' E 023°31'0 0.0
2017-Oct-09 04:58N 37°53' E 023°31'0 0.0
2017-Oct-09 04:28N 37°53' E 023°31'0 0.1
2017-Oct-09 03:58N 37°53' E 023°31'0 0.1
2017-Oct-09 03:28N 37°53' E 023°31'0 0.1
2017-Oct-09 02:58N 37°53' E 023°31'0 0.2
2017-Oct-09 02:28N 37°53' E 023°31'0 0.2
2017-Oct-09 01:58N 37°53' E 023°31'0 0.2
2017-Oct-09 01:28N 37°53' E 023°31'0 0.1
2017-Oct-09 00:58N 37°53' E 023°31'0 0.0
2017-Oct-09 00:28N 37°53' E 023°31'0 0.1
2017-Oct-08 23:58N 37°53' E 023°31'0 0.0
2017-Oct-08 23:28N 37°53' E 023°31'0 0.0
2017-Oct-08 22:58N 37°53' E 023°31'0 0.0
2017-Oct-08 22:28N 37°53' E 023°31'0 0.0
2017-Oct-08 21:58N 37°53' E 023°31'0 0.1
2017-Oct-08 21:28N 37°53' E 023°31'0 0.0
2017-Oct-08 20:58N 37°53' E 023°31'0 0.0
2017-Oct-08 20:28N 37°53' E 023°31'0 0.0
2017-Oct-08 19:58N 37°53' E 023°31'0 0.1
2017-Oct-08 19:28N 37°53' E 023°31'0 0.1
2017-Oct-08 18:58N 37°53' E 023°31'0 0.1
2017-Oct-08 18:28N 37°53' E 023°31'0 0.1
2017-Oct-08 17:58N 37°53' E 023°31'0 0.0
2017-Oct-08 17:28N 37°53' E 023°31'0 0.0
2017-Oct-08 16:58N 37°53' E 023°31'0 0.0
2017-Oct-08 16:28N 37°53' E 023°31'0 0.0
2017-Oct-08 15:58N 37°53' E 023°31'0 0.0
2017-Oct-08 15:28N 37°53' E 023°31'0 0.2
2017-Oct-08 14:58N 37°53' E 023°31'0 0.1
2017-Oct-08 14:28N 37°53' E 023°31'0 0.0
2017-Oct-08 13:58N 37°53' E 023°31'0 0.1
2017-Oct-08 13:28N 37°53' E 023°31'0 0.1
2017-Oct-08 12:58N 37°53' E 023°31'0 0.0
2017-Oct-08 12:28N 37°53' E 023°31'0 0.0
2017-Oct-08 11:58N 37°53' E 023°31'0 0.0
2017-Oct-08 11:28N 37°53' E 023°31'0 0.0
2017-Oct-08 10:58N 37°53' E 023°31'0 0.1
2017-Oct-08 10:28N 37°53' E 023°31'0 0.1
2017-Oct-08 09:58N 37°53' E 023°31'0 0.1
2017-Oct-08 09:28N 37°53' E 023°31'0 0.1
2017-Oct-08 08:58N 37°53' E 023°31'0 0.2
2017-Oct-08 08:28N 37°53' E 023°31'0 0.3
2017-Oct-08 07:58N 37°53' E 023°31'0 0.1
2017-Oct-08 07:28N 37°53' E 023°31'0 0.1
2017-Oct-08 06:58N 37°53' E 023°31'0 0.1
2017-Oct-08 06:28N 37°53' E 023°31'0 0.0
2017-Oct-08 05:58N 37°53' E 023°31'0 0.1
2017-Oct-08 05:28N 37°53' E 023°31'0 0.0
2017-Oct-08 04:58N 37°53' E 023°31'0 0.0
2017-Oct-08 04:28N 37°53' E 023°31'0 0.0
2017-Oct-08 03:58N 37°53' E 023°31'0 0.1
2017-Oct-08 03:28N 37°53' E 023°31'0 0.1
2017-Oct-08 02:58N 37°53' E 023°31'0 0.0
2017-Oct-08 02:28N 37°53' E 023°31'0 0.1
2017-Oct-08 01:58N 37°53' E 023°31'0 0.0
2017-Oct-08 01:28N 37°53' E 023°31'0 0.1
2017-Oct-08 00:58N 37°53' E 023°31'0 0.0
2017-Oct-08 00:28N 37°53' E 023°31'0 0.1
2017-Oct-07 23:58N 37°53' E 023°31'0 0.1
2017-Oct-07 23:28N 37°53' E 023°31'0 0.1
2017-Oct-07 22:58N 37°53' E 023°31'0 0.1
2017-Oct-07 22:28N 37°53' E 023°31'0 0.0
2017-Oct-07 21:58N 37°53' E 023°31'0 0.1
2017-Oct-07 21:28N 37°53' E 023°31'0 0.1
2017-Oct-07 20:58N 37°53' E 023°31'0 0.1
2017-Oct-07 20:28N 37°53' E 023°31'0 0.0
2017-Oct-07 19:58N 37°53' E 023°31'0 0.0
2017-Oct-07 19:28N 37°53' E 023°31'0 0.1
2017-Oct-07 18:58N 37°53' E 023°31'0 0.2
2017-Oct-07 18:28N 37°53' E 023°31'0 0.1
2017-Oct-07 17:58N 37°53' E 023°31'0 0.1
2017-Oct-07 17:28N 37°53' E 023°31'0 0.1
2017-Oct-07 16:58N 37°53' E 023°31'0 0.0
2017-Oct-07 16:28N 37°53' E 023°31'0 0.0
2017-Oct-07 15:58N 37°53' E 023°31'0 0.0
2017-Oct-07 15:28N 37°53' E 023°31'0 0.1
2017-Oct-07 14:58N 37°53' E 023°31'0 0.6
2017-Oct-07 14:28N 37°53' E 023°31'0 0.1
2017-Oct-07 13:58N 37°53' E 023°31'0 0.0
2017-Oct-07 13:28N 37°53' E 023°31'0 0.0
2017-Oct-07 12:58N 37°53' E 023°31'0 0.1
2017-Oct-07 12:28N 37°53' E 023°31'0 0.0
2017-Oct-07 11:58N 37°53' E 023°31'0 0.0
2017-Oct-07 11:28N 37°53' E 023°31'0 0.1
2017-Oct-07 10:58N 37°53' E 023°31'0 0.0
2017-Oct-07 10:28N 37°53' E 023°31'0 0.1
2017-Oct-07 09:58N 37°53' E 023°31'0 0.0
2017-Oct-07 09:28N 37°53' E 023°31'0 0.1
2017-Oct-07 08:58N 37°53' E 023°31'0 0.1
2017-Oct-07 08:28N 37°53' E 023°31'0 0.0
2017-Oct-07 07:58N 37°53' E 023°31'0 0.0
2017-Oct-07 07:28N 37°53' E 023°31'0 0.1
2017-Oct-07 06:58N 37°53' E 023°31'0 0.2
2017-Oct-07 06:28N 37°53' E 023°31'0 0.2
2017-Oct-07 05:58N 37°53' E 023°31'0 0.1
2017-Oct-07 05:28N 37°53' E 023°31'0 0.0
2017-Oct-07 04:58N 37°53' E 023°31'0 0.1
2017-Oct-07 04:28N 37°53' E 023°31'  
Track history (hours):
 
Tides and Currents Weather Stations Pressure Air Temp Water Temp Dewpoint Dewpoint Depression Visibility Wind Speed Wind Dir Waves Ship Positions

Seastar

Last reported at 2017-Oct-17 03:58 UTC. Time now 2017-Oct-17 04:23 UTC.
Position N 44°10' E 028°39'.

Length 250 m; draft 6 m.

Type: Tanker. MMSI: 256702000.

Date/timePositionNaut miles runAvg speedWind from/ knotsBaromVisibWave heightAir tempDewpointWater temp
2017-Oct-17 03:58N 44°10' E 028°39'0 0.0
2017-Oct-17 03:16N 44°10' E 028°39'0 0.0
2017-Oct-17 02:58N 44°10' E 028°39'0 0.0
2017-Oct-17 02:28N 44°10' E 028°39'0 0.0
2017-Oct-17 01:58N 44°10' E 028°39'0 0.0
2017-Oct-17 01:28N 44°10' E 028°39'0 0.0
2017-Oct-17 00:58N 44°10' E 028°39'0 0.0
2017-Oct-17 00:28N 44°10' E 028°39'0 0.0
2017-Oct-16 23:58N 44°10' E 028°39'0 0.0
2017-Oct-16 23:25N 44°10' E 028°39'0 0.0
2017-Oct-16 22:58N 44°10' E 028°39'0 0.0
2017-Oct-16 22:28N 44°10' E 028°39'0 0.0
2017-Oct-16 21:58N 44°10' E 028°39'0 0.0
2017-Oct-16 21:28N 44°10' E 028°39'0 0.0
2017-Oct-16 20:58N 44°10' E 028°39'0 0.0
2017-Oct-16 20:25N 44°10' E 028°39'0 0.0
2017-Oct-16 19:55N 44°10' E 028°39'0 0.0
2017-Oct-16 19:28N 44°10' E 028°39'0 0.0
2017-Oct-16 18:58N 44°10' E 028°39'0 0.0
2017-Oct-16 18:28N 44°10' E 028°39'0 0.0
2017-Oct-16 17:58N 44°10' E 028°39'0 0.0
2017-Oct-16 17:19N 44°10' E 028°39'0 0.0
2017-Oct-16 16:58N 44°10' E 028°39'0 0.0
2017-Oct-16 16:28N 44°10' E 028°39'0 0.0
2017-Oct-16 15:58N 44°10' E 028°39'0 0.0
2017-Oct-16 15:28N 44°10' E 028°39'0 0.0
2017-Oct-16 14:58N 44°10' E 028°39'0 0.0
2017-Oct-16 14:28N 44°10' E 028°39'0 0.0
2017-Oct-16 13:28N 44°10' E 028°39'0 0.0
2017-Oct-16 12:58N 44°10' E 028°39'0 0.0
2017-Oct-16 12:28N 44°10' E 028°39'0 0.0
2017-Oct-16 12:01N 44°10' E 028°39'0 0.2
2017-Oct-16 11:31N 44°10' E 028°39'0 0.3
2017-Oct-16 11:01N 44°10' E 028°39'0 1.0
2017-Oct-16 10:31N 44°09' E 028°39'1 2.9
2017-Oct-16 10:01N 44°08' E 028°40'3 5.2
2017-Oct-16 09:31N 44°06' E 028°42'1 2.7
2017-Oct-16 09:01N 44°06' E 028°44'3 6.2
2017-Oct-16 08:28N 44°07' E 028°48'0 0.1
2017-Oct-16 07:58N 44°07' E 028°48'0 0.0
2017-Oct-16 07:28N 44°07' E 028°48'0 0.1
2017-Oct-16 06:58N 44°07' E 028°48'0 0.0
2017-Oct-16 06:28N 44°07' E 028°48'0 0.0
2017-Oct-16 05:58N 44°07' E 028°48'0 0.0
2017-Oct-16 05:28N 44°07' E 028°48'0 0.0
2017-Oct-16 04:58N 44°07' E 028°48'0 0.1
2017-Oct-16 04:28N 44°07' E 028°48'0 0.0
2017-Oct-16 03:58N 44°07' E 028°48'0 0.1
2017-Oct-16 03:28N 44°07' E 028°49'0 0.0
2017-Oct-16 02:58N 44°07' E 028°49'0 0.0
2017-Oct-16 02:28N 44°07' E 028°49'0 0.1
2017-Oct-16 01:58N 44°07' E 028°49'0 0.0
2017-Oct-16 01:28N 44°07' E 028°49'0 0.0
2017-Oct-16 00:58N 44°07' E 028°49'0 0.0
2017-Oct-16 00:28N 44°07' E 028°49'0 0.0
2017-Oct-15 23:58N 44°07' E 028°49'0 0.0
2017-Oct-15 23:28N 44°07' E 028°49'0 0.0
2017-Oct-15 22:58N 44°07' E 028°49'0 0.1
2017-Oct-15 22:28N 44°07' E 028°49'0 0.1
2017-Oct-15 21:58N 44°07' E 028°49'0 0.0
2017-Oct-15 21:28N 44°07' E 028°49'0 0.1
2017-Oct-15 20:58N 44°07' E 028°49'0 0.0
2017-Oct-15 20:28N 44°07' E 028°49'0 0.0
2017-Oct-15 19:58N 44°07' E 028°49'0 0.0
2017-Oct-15 19:28N 44°07' E 028°49'0 0.0
2017-Oct-15 18:58N 44°07' E 028°49'0 0.0
2017-Oct-15 18:28N 44°07' E 028°49'0 0.2
2017-Oct-15 17:59N 44°07' E 028°48'2 4.1
2017-Oct-15 17:30N 44°05' E 028°50'4 8.5
2017-Oct-15 17:00N 44°02' E 028°52'510.4
2017-Oct-15 16:30N 43°57' E 028°54'4 7.5
2017-Oct-15 16:00N 43°53' E 028°57'4 7.4
2017-Oct-15 15:30N 43°51' E 029°01'4 7.4
2017-Oct-15 15:00N 43°49' E 029°05'8 8.2
2017-Oct-15 13:59N 43°43' E 029°14'4 8.3
2017-Oct-15 13:30N 43°40' E 029°16'4 8.1
2017-Oct-15 13:00N 43°36' E 029°16'4 8.2
2017-Oct-15 12:30N 43°32' E 029°16'4 8.3
2017-Oct-15 12:00N 43°27' E 029°16'5 8.2
2017-Oct-15 11:27N 43°23' E 029°18'20 7.7
2017-Oct-15 08:50N 43°04' E 029°28'5 6.5
2017-Oct-15 08:06N 42°60' E 029°30'1 3.9
2017-Oct-15 07:43N 43°01' E 029°28'1 6.5
2017-Oct-15 07:30N 42°60' E 029°30'3 5.7
2017-Oct-15 06:55N 42°57' E 029°32'5 6.1
2017-Oct-15 06:07N 42°52' E 029°35'1 5.1
2017-Oct-15 06:00N 42°52' E 029°35'1 0.4
2017-Oct-15 02:44N 42°51' E 029°34'1 0.9
2017-Oct-15 01:57N 42°51' E 029°33'119 7.5
2017-Oct-14 10:08N 40°56' E 028°58'313.1
2017-Oct-14 09:56N 40°53' E 028°56'9 1.5
2017-Oct-14 03:47N 40°46' E 028°49'0 0.4
2017-Oct-14 03:30N 40°46' E 028°49'0 0.3
2017-Oct-14 02:19N 40°47' E 028°49'1 0.4
2017-Oct-13 22:42N 40°48' E 028°51'3 1.6
2017-Oct-13 21:09N 40°50' E 028°52'0 0.3
2017-Oct-13 20:54N 40°50' E 028°52'0 0.3
2017-Oct-13 20:30N 40°50' E 028°52'1 0.6
2017-Oct-13 19:21N 40°50' E 028°53'2 4.7
2017-Oct-13 18:52N 40°50' E 028°56'0 0.5
2017-Oct-13 18:26N 40°50' E 028°55'8 6.5
2017-Oct-13 17:11N 40°49' E 028°45'210.4
2017-Oct-13 17:00N 40°49' E 028°42'510.5
2017-Oct-13 16:30N 40°49' E 028°36'1210.6
2017-Oct-13 15:23N 40°48' E 028°20'410.7
2017-Oct-13 15:00N 40°47' E 028°14'10611.0
2017-Oct-13 05:21N 40°01' E 026°10'611.4
2017-Oct-13 04:47N 39°59' E 026°02'512.1
2017-Oct-13 04:22N 39°55' E 025°58'512.3
2017-Oct-13 03:57N 39°51' E 025°55'  
2017-Oct-10 11:55N 37°44' E 024°16'21 9.0
2017-Oct-10 09:35N 37°34' E 023°53'210.5
2017-Oct-10 09:25N 37°35' E 023°51'410.6
2017-Oct-10 09:00N 37°36' E 023°46'510.2
2017-Oct-10 08:30N 37°38' E 023°40'1 2.0
2017-Oct-10 08:00N 37°39' E 023°40'1 2.2
2017-Oct-10 07:30N 37°40' E 023°40'3 5.9
2017-Oct-10 07:01N 37°43' E 023°40'612.8
2017-Oct-10 06:31N 37°49' E 023°37'4 8.9
2017-Oct-10 06:01N 37°51' E 023°31'0 0.1
2017-Oct-10 05:29N 37°51' E 023°31'0 0.1
2017-Oct-10 04:59N 37°51' E 023°31'0 0.1
2017-Oct-10 04:26N 37°51' E 023°31'0 0.1
2017-Oct-10 03:59N 37°51' E 023°31'0 0.0
2017-Oct-10 03:29N 37°51' E 023°31'0 0.1
2017-Oct-10 02:59N 37°51' E 023°31'0 0.1
2017-Oct-10 02:29N 37°51' E 023°31'0 0.1
2017-Oct-10 01:59N 37°51' E 023°31'0 0.0
2017-Oct-10 01:29N 37°51' E 023°31'0 0.1
2017-Oct-10 00:59N 37°51' E 023°31'0 0.2
2017-Oct-10 00:29N 37°51' E 023°31'0 0.1
2017-Oct-09 23:59N 37°51' E 023°31'0 0.0
2017-Oct-09 23:29N 37°51' E 023°31'0 0.0
2017-Oct-09 22:59N 37°51' E 023°31'0 0.0
2017-Oct-09 22:29N 37°51' E 023°31'0 0.1
2017-Oct-09 21:59N 37°51' E 023°31'0 0.1
2017-Oct-09 21:29N 37°51' E 023°31'0 0.1
2017-Oct-09 20:59N 37°51' E 023°31'0 0.0
2017-Oct-09 20:29N 37°51' E 023°31'0 0.0
2017-Oct-09 19:59N 37°51' E 023°31'0 0.3
2017-Oct-09 19:29N 37°51' E 023°32'1 1.7
2017-Oct-09 19:00N 37°51' E 023°33'4 7.7
2017-Oct-09 18:30N 37°53' E 023°37'510.8
2017-Oct-09 18:00N 37°48' E 023°41'713.4
2017-Oct-09 17:30N 37°42' E 023°44'611.3
2017-Oct-09 17:00N 37°36' E 023°43'1 2.0
2017-Oct-09 16:26N 37°35' E 023°43'2 4.7
2017-Oct-09 16:00N 37°37' E 023°42'2 4.3
2017-Oct-09 15:31N 37°39' E 023°42'612.7
2017-Oct-09 15:00N 37°45' E 023°39'612.7
2017-Oct-09 14:30N 37°51' E 023°35'4 7.9
2017-Oct-09 13:58N 37°53' E 023°31'0 0.1
2017-Oct-09 13:28N 37°53' E 023°31'0 0.2
2017-Oct-09 12:58N 37°53' E 023°31'0 0.1
2017-Oct-09 12:28N 37°53' E 023°31'0 0.0
2017-Oct-09 11:58N 37°53' E 023°31'0 0.0
2017-Oct-09 11:28N 37°53' E 023°31'0 0.0
2017-Oct-09 10:58N 37°53' E 023°31'0 0.0
2017-Oct-09 10:28N 37°53' E 023°31'0 0.2
2017-Oct-09 09:58N 37°53' E 023°31'0 0.2
2017-Oct-09 09:28N 37°53' E 023°31'0 0.1
2017-Oct-09 08:58N 37°53' E 023°31'0 0.0
2017-Oct-09 08:28N 37°53' E 023°31'0 0.1
2017-Oct-09 07:58N 37°53' E 023°31'0 0.0
2017-Oct-09 07:28N 37°53' E 023°31'0 0.0
2017-Oct-09 06:58N 37°53' E 023°31'0 0.1
2017-Oct-09 06:28N 37°53' E 023°31'0 0.1
2017-Oct-09 05:58N 37°53' E 023°31'0 0.0
2017-Oct-09 05:28N 37°53' E 023°31'0 0.0
2017-Oct-09 04:58N 37°53' E 023°31'0 0.0
2017-Oct-09 04:28N 37°53' E 023°31'0 0.1
2017-Oct-09 03:58N 37°53' E 023°31'0 0.1
2017-Oct-09 03:28N 37°53' E 023°31'0 0.1
2017-Oct-09 02:58N 37°53' E 023°31'0 0.2
2017-Oct-09 02:28N 37°53' E 023°31'0 0.2
2017-Oct-09 01:58N 37°53' E 023°31'0 0.2
2017-Oct-09 01:28N 37°53' E 023°31'0 0.1
2017-Oct-09 00:58N 37°53' E 023°31'0 0.0
2017-Oct-09 00:28N 37°53' E 023°31'0 0.1
2017-Oct-08 23:58N 37°53' E 023°31'0 0.0
2017-Oct-08 23:28N 37°53' E 023°31'0 0.0
2017-Oct-08 22:58N 37°53' E 023°31'0 0.0
2017-Oct-08 22:28N 37°53' E 023°31'0 0.0
2017-Oct-08 21:58N 37°53' E 023°31'0 0.1
2017-Oct-08 21:28N 37°53' E 023°31'0 0.0
2017-Oct-08 20:58N 37°53' E 023°31'0 0.0
2017-Oct-08 20:28N 37°53' E 023°31'0 0.0
2017-Oct-08 19:58N 37°53' E 023°31'0 0.1
2017-Oct-08 19:28N 37°53' E 023°31'0 0.1
2017-Oct-08 18:58N 37°53' E 023°31'0 0.1
2017-Oct-08 18:28N 37°53' E 023°31'0 0.1
2017-Oct-08 17:58N 37°53' E 023°31'0 0.0
2017-Oct-08 17:28N 37°53' E 023°31'0 0.0
2017-Oct-08 16:58N 37°53' E 023°31'0 0.0
2017-Oct-08 16:28N 37°53' E 023°31'0 0.0
2017-Oct-08 15:58N 37°53' E 023°31'0 0.0
2017-Oct-08 15:28N 37°53' E 023°31'0 0.2
2017-Oct-08 14:58N 37°53' E 023°31'0 0.1
2017-Oct-08 14:28N 37°53' E 023°31'0 0.0
2017-Oct-08 13:58N 37°53' E 023°31'0 0.1
2017-Oct-08 13:28N 37°53' E 023°31'0 0.1
2017-Oct-08 12:58N 37°53' E 023°31'0 0.0
2017-Oct-08 12:28N 37°53' E 023°31'0 0.0
2017-Oct-08 11:58N 37°53' E 023°31'0 0.0
2017-Oct-08 11:28N 37°53' E 023°31'0 0.0
2017-Oct-08 10:58N 37°53' E 023°31'0 0.1
2017-Oct-08 10:28N 37°53' E 023°31'0 0.1
2017-Oct-08 09:58N 37°53' E 023°31'0 0.1
2017-Oct-08 09:28N 37°53' E 023°31'0 0.1
2017-Oct-08 08:58N 37°53' E 023°31'0 0.2
2017-Oct-08 08:28N 37°53' E 023°31'0 0.3
2017-Oct-08 07:58N 37°53' E 023°31'0 0.1
2017-Oct-08 07:28N 37°53' E 023°31'0 0.1
2017-Oct-08 06:58N 37°53' E 023°31'0 0.1
2017-Oct-08 06:28N 37°53' E 023°31'0 0.0
2017-Oct-08 05:58N 37°53' E 023°31'0 0.1
2017-Oct-08 05:28N 37°53' E 023°31'0 0.0
2017-Oct-08 04:58N 37°53' E 023°31'0 0.0
2017-Oct-08 04:28N 37°53' E 023°31'0 0.0
2017-Oct-08 03:58N 37°53' E 023°31'0 0.1
2017-Oct-08 03:28N 37°53' E 023°31'0 0.1
2017-Oct-08 02:58N 37°53' E 023°31'0 0.0
2017-Oct-08 02:28N 37°53' E 023°31'0 0.1
2017-Oct-08 01:58N 37°53' E 023°31'0 0.0
2017-Oct-08 01:28N 37°53' E 023°31'0 0.1
2017-Oct-08 00:58N 37°53' E 023°31'0 0.0
2017-Oct-08 00:28N 37°53' E 023°31'0 0.1
2017-Oct-07 23:58N 37°53' E 023°31'0 0.1
2017-Oct-07 23:28N 37°53' E 023°31'0 0.1
2017-Oct-07 22:58N 37°53' E 023°31'0 0.1
2017-Oct-07 22:28N 37°53' E 023°31'0 0.0
2017-Oct-07 21:58N 37°53' E 023°31'0 0.1
2017-Oct-07 21:28N 37°53' E 023°31'0 0.1
2017-Oct-07 20:58N 37°53' E 023°31'0 0.1
2017-Oct-07 20:28N 37°53' E 023°31'0 0.0
2017-Oct-07 19:58N 37°53' E 023°31'0 0.0
2017-Oct-07 19:28N 37°53' E 023°31'0 0.1
2017-Oct-07 18:58N 37°53' E 023°31'0 0.2
2017-Oct-07 18:28N 37°53' E 023°31'0 0.1
2017-Oct-07 17:58N 37°53' E 023°31'0 0.1
2017-Oct-07 17:28N 37°53' E 023°31'0 0.1
2017-Oct-07 16:58N 37°53' E 023°31'0 0.0
2017-Oct-07 16:28N 37°53' E 023°31'0 0.0
2017-Oct-07 15:58N 37°53' E 023°31'0 0.0
2017-Oct-07 15:28N 37°53' E 023°31'0 0.1
2017-Oct-07 14:58N 37°53' E 023°31'0 0.6
2017-Oct-07 14:28N 37°53' E 023°31'0 0.1
2017-Oct-07 13:58N 37°53' E 023°31'0 0.0
2017-Oct-07 13:28N 37°53' E 023°31'0 0.0
2017-Oct-07 12:58N 37°53' E 023°31'0 0.1
2017-Oct-07 12:28N 37°53' E 023°31'0 0.0
2017-Oct-07 11:58N 37°53' E 023°31'0 0.0
2017-Oct-07 11:28N 37°53' E 023°31'0 0.1
2017-Oct-07 10:58N 37°53' E 023°31'0 0.0
2017-Oct-07 10:28N 37°53' E 023°31'0 0.1
2017-Oct-07 09:58N 37°53' E 023°31'0 0.0
2017-Oct-07 09:28N 37°53' E 023°31'0 0.1
2017-Oct-07 08:58N 37°53' E 023°31'0 0.1
2017-Oct-07 08:28N 37°53' E 023°31'0 0.0
2017-Oct-07 07:58N 37°53' E 023°31'0 0.0
2017-Oct-07 07:28N 37°53' E 023°31'0 0.1
2017-Oct-07 06:58N 37°53' E 023°31'0 0.2
2017-Oct-07 06:28N 37°53' E 023°31'0 0.2
2017-Oct-07 05:58N 37°53' E 023°31'0 0.1
2017-Oct-07 05:28N 37°53' E 023°31'0 0.0
2017-Oct-07 04:58N 37°53' E 023°31'0 0.1
2017-Oct-07 04:28N 37°53' E 023°31'  

Dump ship's entire track history